createdAt,value
2022-11-08T09:03:53.339Z,6.70
2022-11-08T09:06:43.878Z,6.25
2022-11-08T09:09:31.516Z,7.03
2022-11-08T09:12:19.100Z,5.80
2022-11-08T09:15:07.258Z,7.22
2022-11-08T09:17:57.405Z,5.55
2022-11-08T09:20:45.231Z,5.28
2022-11-08T09:23:32.819Z,6.13
2022-11-08T09:26:20.503Z,5.32
2022-11-08T09:29:08.161Z,5.38
2022-11-08T09:31:56.291Z,6.30
2022-11-08T09:34:45.306Z,6.10
2022-11-08T09:37:32.962Z,6.22
2022-11-08T09:40:48.896Z,5.45
2022-11-08T09:44:07.703Z,6.05
2022-11-08T09:47:04.741Z,5.10
2022-11-08T09:50:05.923Z,5.65
2022-11-08T09:53:18.080Z,5.88
2022-11-08T09:56:26.963Z,5.53
2022-11-08T09:59:29.738Z,5.93
2022-11-08T10:02:23.641Z,5.45
2022-11-08T10:05:18.508Z,5.72
2022-11-08T10:08:11.909Z,4.97
2022-11-08T10:11:33.774Z,5.43
2022-11-08T10:14:54.389Z,5.28
2022-11-08T10:18:04.003Z,4.85
2022-11-08T10:21:00.484Z,6.07
2022-11-08T10:24:04.043Z,5.25
2022-11-08T10:26:54.744Z,5.00
2022-11-08T10:29:45.532Z,5.57
2022-11-08T10:32:34.894Z,6.00
2022-11-08T10:35:33.158Z,5.63
2022-11-08T10:38:24.846Z,6.00
2022-11-08T10:41:47.283Z,5.05
2022-11-08T10:44:35.897Z,6.28
2022-11-08T10:47:31.080Z,4.97
2022-11-08T10:50:22.837Z,5.88
2022-11-08T10:53:32.012Z,5.15
2022-11-08T10:56:20.722Z,4.95
2022-11-08T10:59:31.467Z,5.95
2022-11-08T11:02:21.929Z,5.70
2022-11-08T11:05:23.748Z,5.20
2022-11-08T11:08:11.291Z,4.43
2022-11-08T11:11:36.424Z,5.32
2022-11-08T11:14:24.298Z,5.25
2022-11-08T11:17:17.460Z,4.22
2022-11-08T11:20:05.660Z,5.57
2022-11-08T11:22:53.584Z,4.45
2022-11-08T11:25:50.909Z,4.07
2022-11-08T11:28:59.279Z,4.50
2022-11-08T11:31:49.623Z,4.20
2022-11-08T11:34:46.381Z,5.00
2022-11-08T11:37:45.153Z,4.75
2022-11-08T11:40:42.062Z,4.07
2022-11-08T11:43:43.115Z,4.95
2022-11-08T11:46:44.426Z,3.45
2022-11-08T11:49:34.557Z,4.30
2022-11-08T11:52:22.182Z,3.97
2022-11-08T11:55:15.231Z,4.20
2022-11-08T11:58:37.534Z,4.03
2022-11-08T12:01:52.556Z,3.00
2022-11-08T12:04:55.339Z,4.22
2022-11-08T12:07:59.980Z,3.60
2022-11-08T12:10:54.978Z,3.90
2022-11-08T12:14:30.813Z,3.67
2022-11-08T12:17:33.754Z,3.60
2022-11-08T12:20:47.800Z,3.85
2022-11-08T12:23:53.478Z,4.38
2022-11-08T12:26:41.099Z,3.85
2022-11-08T12:29:43.982Z,4.90
2022-11-08T12:33:03.578Z,4.93
2022-11-08T12:36:29.348Z,4.20
2022-11-08T12:39:45.240Z,4.22
2022-11-08T12:42:58.177Z,3.45
2022-11-08T12:46:04.519Z,3.40
2022-11-08T12:48:57.802Z,3.67
2022-11-08T12:51:45.313Z,2.65
2022-11-08T12:54:37.619Z,3.08
2022-11-08T12:57:28.422Z,3.35
2022-11-08T13:00:19.676Z,3.17
2022-11-08T13:03:27.527Z,3.63
2022-11-08T13:06:37.178Z,3.50
2022-11-08T13:09:37.048Z,3.53
2022-11-08T13:12:55.315Z,6.30
2022-11-08T13:16:09.285Z,2.97
2022-11-08T13:18:58.998Z,3.00
2022-11-08T13:21:46.670Z,3.00
2022-11-08T13:24:50.601Z,2.90
2022-11-08T13:27:39.716Z,3.17
2022-11-08T13:30:34.288Z,3.13
2022-11-08T13:33:30.576Z,2.70
2022-11-08T13:36:27.557Z,3.33
2022-11-08T13:39:24.195Z,2.95
2022-11-08T13:42:17.676Z,2.67
2022-11-08T13:45:17.508Z,2.85
2022-11-08T13:48:28.677Z,3.17
2022-11-08T13:51:34.415Z,2.67
2022-11-08T13:54:22.435Z,2.20
2022-11-08T13:57:19.614Z,3.08
2022-11-08T14:00:09.872Z,3.17
2022-11-08T14:03:00.674Z,2.53
2022-11-08T14:05:49.653Z,3.50
2022-11-08T14:08:57.309Z,2.83
2022-11-08T14:12:03.996Z,3.28
2022-11-08T14:15:07.306Z,2.85
2022-11-08T14:18:19.875Z,3.63
2022-11-08T14:21:08.123Z,2.40
2022-11-08T14:23:56.259Z,2.58
2022-11-08T14:26:48.112Z,3.03
2022-11-08T14:29:35.799Z,2.72
2022-11-08T14:32:23.713Z,3.03
2022-11-08T14:35:25.754Z,2.92
2022-11-08T14:38:19.648Z,3.33
2022-11-08T14:41:07.613Z,3.38
2022-11-08T14:43:58.538Z,2.92
2022-11-08T14:46:46.390Z,3.03
2022-11-08T14:49:36.593Z,3.40
2022-11-08T14:52:29.441Z,3.10
2022-11-08T14:55:23.865Z,3.55
2022-11-08T14:58:15.787Z,2.97
2022-11-08T15:01:04.731Z,2.92
2022-11-08T15:03:56.094Z,3.40
2022-11-08T15:06:46.902Z,3.13
2022-11-08T15:09:35.979Z,4.15
2022-11-08T15:12:25.962Z,3.80
2022-11-08T15:15:25.191Z,3.65
2022-11-08T15:18:13.353Z,3.47
2022-11-08T15:21:02.773Z,3.85
2022-11-08T15:23:55.255Z,4.35
2022-11-08T15:27:14.593Z,2.78
2022-11-08T15:30:09.591Z,3.83
2022-11-08T15:32:57.383Z,3.70
2022-11-08T15:35:47.051Z,3.60
2022-11-08T15:38:39.982Z,3.60
2022-11-08T15:41:32.899Z,3.35
2022-11-08T15:44:24.003Z,2.85
2022-11-08T15:47:35.738Z,4.07
2022-11-08T15:50:25.821Z,2.88
2022-11-08T15:53:13.569Z,3.67
2022-11-08T15:56:04.723Z,4.03
2022-11-08T15:58:52.405Z,3.88
2022-11-08T16:01:46.314Z,4.10
2022-11-08T16:04:33.948Z,4.10
2022-11-08T16:07:21.519Z,3.88
2022-11-08T16:10:10.222Z,3.65
2022-11-08T16:13:01.002Z,4.30
2022-11-08T16:15:48.881Z,3.33
2022-11-08T16:18:38.796Z,4.70
2022-11-08T16:21:26.640Z,4.90
2022-11-08T16:24:14.759Z,4.32
2022-11-08T16:27:02.529Z,5.03
2022-11-08T16:29:50.130Z,4.80
2022-11-08T16:32:37.720Z,3.55
2022-11-08T16:35:25.995Z,3.83
2022-11-08T16:38:13.780Z,4.43
2022-11-08T16:41:02.416Z,4.13
2022-11-08T16:43:50.229Z,4.38
2022-11-08T16:46:38.457Z,4.60
2022-11-08T16:49:27.433Z,4.10
2022-11-08T16:52:15.060Z,5.30
2022-11-08T16:55:04.082Z,5.70
2022-11-08T16:57:51.653Z,3.53
2022-11-08T17:00:41.743Z,4.57
2022-11-08T17:03:29.803Z,4.25
2022-11-08T17:06:18.514Z,4.10
2022-11-08T17:09:07.279Z,4.30
2022-11-08T17:11:54.862Z,4.03
2022-11-08T17:14:42.644Z,4.18
2022-11-08T17:17:30.358Z,4.53
2022-11-08T17:20:22.365Z,4.15
2022-11-08T17:23:14.927Z,4.43
2022-11-08T17:26:06.782Z,5.00
2022-11-08T17:28:57.655Z,4.15
2022-11-08T17:31:45.366Z,4.78
2022-11-08T17:34:33.412Z,5.03
2022-11-08T17:37:21.158Z,4.63
2022-11-08T17:40:09.177Z,4.75
2022-11-08T17:42:57.225Z,5.32
2022-11-08T17:45:44.845Z,5.28
2022-11-08T17:48:33.614Z,5.68
2022-11-08T17:51:27.031Z,6.63
2022-11-08T17:54:17.904Z,5.32
2022-11-08T17:57:05.511Z,5.25
2022-11-08T17:59:53.243Z,4.72
2022-11-08T18:02:41.062Z,5.10
2022-11-08T18:05:32.022Z,5.45
2022-11-08T18:08:25.568Z,5.47
2022-11-08T18:11:14.555Z,6.35
2022-11-08T18:14:02.943Z,5.72
2022-11-08T18:16:50.740Z,5.65
2022-11-08T18:19:38.566Z,5.82
2022-11-08T18:22:26.921Z,7.13
2022-11-08T18:25:15.980Z,5.90
2022-11-08T18:28:04.576Z,5.88
2022-11-08T18:30:54.875Z,6.43
2022-11-08T18:33:43.663Z,5.57
2022-11-08T18:36:31.681Z,5.78
2022-11-08T18:39:22.493Z,6.90
2022-11-08T18:42:10.256Z,7.20
2022-11-08T18:44:57.885Z,5.72
2022-11-08T18:47:45.537Z,7.20
2022-11-08T18:50:33.365Z,7.40
2022-11-08T18:53:21.610Z,6.43
2022-11-08T18:56:11.198Z,7.28
2022-11-08T18:58:58.863Z,7.20
2022-11-08T19:01:46.519Z,7.57
2022-11-08T19:04:34.199Z,7.68
2022-11-08T19:07:22.184Z,7.57
2022-11-08T19:10:09.964Z,7.85
2022-11-08T19:12:57.584Z,7.90
2022-11-08T19:15:45.601Z,9.50
2022-11-08T19:18:34.224Z,9.75
2022-11-08T19:21:26.642Z,8.50
2022-11-08T19:24:14.236Z,7.78
2022-11-08T19:27:01.992Z,8.63
2022-11-08T19:29:50.224Z,8.20
2022-11-08T19:32:37.845Z,7.35
2022-11-08T19:35:25.416Z,8.05
2022-11-08T19:38:13.088Z,8.25
2022-11-08T19:41:02.179Z,8.77
2022-11-08T19:43:51.922Z,13.15
2022-11-08T19:46:40.594Z,8.50
2022-11-08T19:49:29.276Z,9.43
2022-11-08T19:52:16.895Z,8.82
2022-11-08T19:55:04.865Z,8.70
2022-11-08T19:57:52.484Z,9.52
2022-11-08T20:00:40.213Z,8.10
2022-11-08T20:03:27.806Z,8.38
2022-11-08T20:06:18.090Z,8.43
2022-11-08T20:09:06.609Z,8.43
2022-11-08T20:11:55.093Z,8.30
2022-11-08T20:14:42.694Z,8.32
2022-11-08T20:17:33.236Z,8.45
2022-11-08T20:20:20.859Z,8.48
2022-11-08T20:23:09.162Z,8.70
2022-11-08T20:26:01.096Z,8.02
2022-11-08T20:28:56.312Z,8.15
2022-11-08T20:31:44.294Z,9.68
2022-11-08T20:34:32.378Z,8.73
2022-11-08T20:37:20.115Z,8.65
2022-11-08T20:40:08.587Z,8.38
2022-11-08T20:42:56.232Z,8.65
2022-11-08T20:45:43.825Z,7.95
2022-11-08T20:48:32.202Z,9.65
2022-11-08T20:51:20.890Z,10.75
2022-11-08T20:54:10.278Z,9.30
2022-11-08T20:56:58.141Z,9.90
2022-11-08T20:59:46.117Z,9.75
2022-11-08T21:02:33.747Z,7.88
2022-11-08T21:05:21.880Z,8.55
2022-11-08T21:08:57.974Z,8.57
2022-11-08T21:11:17.839Z,7.97
2022-11-08T21:14:05.493Z,8.85
2022-11-08T21:17:20.134Z,8.10
2022-11-08T21:20:01.189Z,7.35
2022-11-08T21:22:49.047Z,8.65
2022-11-08T21:25:36.699Z,9.07
2022-11-08T21:28:24.881Z,8.68
2022-11-08T21:31:13.062Z,8.68
2022-11-08T21:34:00.840Z,9.52
2022-11-08T21:36:48.536Z,8.45
2022-11-08T21:39:36.152Z,9.25
2022-11-08T21:42:23.772Z,8.77
2022-11-08T21:45:11.639Z,9.30
2022-11-08T21:47:59.241Z,9.40
2022-11-08T21:50:46.865Z,9.25
2022-11-08T21:53:34.477Z,9.35
2022-11-08T21:56:23.855Z,9.55
2022-11-08T21:59:11.532Z,9.45
2022-11-08T22:01:59.248Z,9.70
2022-11-08T22:04:46.905Z,9.13
2022-11-08T22:07:35.294Z,9.30
2022-11-08T22:10:22.900Z,8.95
2022-11-08T22:13:10.528Z,9.05
2022-11-08T22:15:58.198Z,9.82
2022-11-08T22:21:53.420Z,9.43
2022-11-08T22:24:41.196Z,8.95
2022-11-08T22:27:28.871Z,9.48
2022-11-08T22:30:17.011Z,9.65
2022-11-08T22:33:04.712Z,8.93
2022-11-08T22:35:52.393Z,9.15
2022-11-08T22:38:40.183Z,8.95
2022-11-08T22:41:28.626Z,9.23
2022-11-08T22:44:17.084Z,9.73
2022-11-08T22:47:04.667Z,9.27
2022-11-08T22:49:52.315Z,9.02
2022-11-08T22:52:39.954Z,9.65
2022-11-08T22:55:28.013Z,8.77
2022-11-08T22:58:15.668Z,8.10
2022-11-08T23:01:03.773Z,8.57
2022-11-08T23:03:51.436Z,8.55
2022-11-08T23:06:39.942Z,9.98
2022-11-08T23:09:27.537Z,10.50
2022-11-08T23:12:34.020Z,10.07
2022-11-08T23:15:40.069Z,9.05
2022-11-08T23:18:28.265Z,9.55
2022-11-08T23:21:34.467Z,9.10
2022-11-08T23:24:22.217Z,9.53
2022-11-08T23:27:30.665Z,10.10
2022-11-08T23:30:37.385Z,9.18
2022-11-08T23:33:25.117Z,10.60
2022-11-08T23:36:14.268Z,9.82
2022-11-08T23:39:01.896Z,10.68
2022-11-08T23:42:08.163Z,10.90
2022-11-08T23:44:55.798Z,10.10
2022-11-08T23:47:43.515Z,8.98
2022-11-08T23:50:31.377Z,8.82
2022-11-08T23:53:21.146Z,9.55
2022-11-08T23:56:09.076Z,9.32
2022-11-08T23:58:58.765Z,7.90
